Time;durP1;ratioP1;P1;durP2;ratioP2;P2;SDS_P1;SDS_P2;PMS_P1;PMS_P2;Temp;Humidity;BMP_temperature;BMP_pressure;BME280_temperature;BME280_humidity;BME280_pressure;Samples;Min_cycle;Max_cycle;Signal;HPM_P1;HPM_P2
2022/04/16 00:01:06;;;;;;;11.93;2.67;;;;;;;;;;5092944;28;20605;-88
2022/04/16 00:03:33;;;;;;;11.88;2.72;;;;;;;;;;5068292;28;20386;-89
2022/04/16 00:06:25;;;;;;;16.33;3.13;;;;;;;;;;5071961;28;20020;-89
2022/04/16 00:11:44;;;;;;;16.80;2.80;;;;;;;;;;5090420;28;20483;-89
2022/04/16 00:14:12;;;;;;;16.08;2.72;;;;;;;;;;5075695;28;20079;-89
2022/04/16 00:16:39;;;;;;;11.88;2.42;;;;;;;;;;5074042;28;20069;-89
2022/04/16 00:19:16;;;;;;;18.20;2.97;;;;;;;;;;5079503;28;20034;-89
2022/04/16 00:21:42;;;;;;;10.07;2.80;;;;;;;;;;5061130;28;20036;-89
2022/04/16 00:24:09;;;;;;;11.45;2.38;;;;;;;;;;5084549;28;20047;-89
2022/04/16 00:26:40;;;;;;;7.32;2.65;;;;;;;;;;5080809;28;20038;-89
2022/04/16 00:29:07;;;;;;;9.57;1.83;;;;;;;;;;5072295;28;20586;-89
2022/04/16 00:31:34;;;;;;;8.05;2.33;;;;;;;;;;5068565;28;20499;-89
2022/04/16 00:34:16;;;;;;;15.13;2.70;;;;;;;;;;5067948;28;20028;-89
2022/04/16 00:36:43;;;;;;;10.73;2.28;;;;;;;;;;5075597;28;20031;-89
2022/04/16 00:39:11;;;;;;;9.55;2.88;;;;;;;;;;5073548;28;20692;-88
2022/04/16 00:41:39;;;;;;;8.00;2.08;;;;;;;;;;5092051;28;20055;-90
2022/04/16 00:44:13;;;;;;;10.60;2.95;;;;;;;;;;5092247;28;20038;-89
2022/04/16 00:46:39;;;;;;;17.35;2.13;;;;;;;;;;5091249;28;20020;-89
2022/04/16 00:49:17;;;;;;;10.70;2.75;;;;;;;;;;5072194;28;20027;-89
2022/04/16 00:51:47;;;;;;;10.98;2.70;;;;;;;;;;5071862;28;20032;-89
2022/04/16 00:54:18;;;;;;;8.10;2.28;;;;;;;;;;5072574;28;20036;-89
2022/04/16 00:56:44;;;;;;;14.65;2.42;;;;;;;;;;5073681;28;20495;-88
2022/04/16 00:59:11;;;;;;;13.10;3.55;;;;;;;;;;5075181;28;20024;-89
2022/04/16 01:01:38;;;;;;;9.43;2.33;;;;;;;;;;5073100;28;20060;-89
2022/04/16 01:04:05;;;;;;;7.78;2.22;;;;;;;;;;5074250;28;20475;-89
2022/04/16 01:06:48;;;;;;;9.40;2.58;;;;;;;;;;5072418;28;20016;-88
2022/04/16 01:09:15;;;;;;;11.15;2.75;;;;;;;;;;5074868;28;20253;-88
2022/04/16 01:11:44;;;;;;;8.38;2.30;;;;;;;;;;5073093;28;20032;-88
2022/04/16 01:14:11;;;;;;;11.02;2.65;;;;;;;;;;5064943;28;20119;-89
2022/04/16 01:16:47;;;;;;;7.93;2.33;;;;;;;;;;5069385;28;20035;-90
2022/04/16 01:19:14;;;;;;;8.23;2.40;;;;;;;;;;5070725;28;20028;-88
2022/04/16 01:21:41;;;;;;;11.85;2.40;;;;;;;;;;5069412;28;20036;-90
2022/04/16 01:24:09;;;;;;;11.90;2.22;;;;;;;;;;5070037;28;20081;-91
2022/04/16 01:26:35;;;;;;;9.13;2.15;;;;;;;;;;5071758;28;20111;-90
2022/04/16 01:29:02;;;;;;;12.82;3.28;;;;;;;;;;5068295;28;20024;-91
2022/04/16 01:31:30;;;;;;;14.02;2.50;;;;;;;;;;5067555;28;20158;-91
2022/04/16 01:33:58;;;;;;;8.43;2.10;;;;;;;;;;4722522;28;9999958;-90
2022/04/16 01:36:29;;;;;;;14.80;2.65;;;;;;;;;;5068853;28;20027;-90
2022/04/16 01:38:57;;;;;;;9.55;2.13;;;;;;;;;;5071698;28;20470;-90
2022/04/16 01:41:24;;;;;;;13.88;2.75;;;;;;;;;;5066278;28;20046;-90
2022/04/16 01:44:04;;;;;;;10.68;2.38;;;;;;;;;;5074314;28;20135;-91
2022/04/16 01:46:33;;;;;;;10.38;2.47;;;;;;;;;;5088487;28;20410;-90
2022/04/16 01:49:01;;;;;;;7.55;1.92;;;;;;;;;;5075649;28;20583;-90
2022/04/16 01:51:27;;;;;;;9.18;2.55;;;;;;;;;;5073742;28;20032;-89
2022/04/16 01:53:59;;;;;;;13.95;2.17;;;;;;;;;;5092873;28;20020;-87
2022/04/16 01:56:26;;;;;;;6.60;2.17;;;;;;;;;;5074264;28;20048;-87
2022/04/16 01:58:54;;;;;;;9.18;2.08;;;;;;;;;;5074783;28;20031;-88
2022/04/16 02:01:22;;;;;;;15.70;2.33;;;;;;;;;;5076072;28;20054;-88
2022/04/16 02:03:49;;;;;;;10.15;2.00;;;;;;;;;;5069045;28;20028;-87
2022/04/16 02:06:26;;;;;;;8.90;1.80;;;;;;;;;;5064363;28;20480;-90
2022/04/16 02:08:53;;;;;;;8.52;2.33;;;;;;;;;;5069292;28;20020;-89
2022/04/16 02:11:28;;;;;;;12.75;1.85;;;;;;;;;;5075628;28;20111;-89
2022/04/16 02:13:54;;;;;;;14.38;2.15;;;;;;;;;;5068564;28;20024;-88
2022/04/16 02:16:34;;;;;;;12.43;2.05;;;;;;;;;;5075243;28;20403;-89
2022/04/16 02:19:00;;;;;;;11.15;2.28;;;;;;;;;;5070324;28;20035;-88
2022/04/16 02:21:32;;;;;;;6.95;1.77;;;;;;;;;;5076897;28;20028;-89
2022/04/16 02:23:59;;;;;;;10.25;1.65;;;;;;;;;;5069256;28;20048;-89
2022/04/16 02:26:28;;;;;;;12.77;1.85;;;;;;;;;;5076578;28;20073;-89
2022/04/16 02:28:55;;;;;;;13.88;2.05;;;;;;;;;;5063885;28;20036;-88
2022/04/16 02:31:27;;;;;;;4.85;1.20;;;;;;;;;;5063807;28;20434;-88
2022/04/16 02:33:57;;;;;;;9.13;1.52;;;;;;;;;;5086505;28;20027;-88
2022/04/16 02:36:28;;;;;;;10.73;2.00;;;;;;;;;;5075328;28;20497;-89
2022/04/16 02:38:57;;;;;;;11.15;2.38;;;;;;;;;;5075365;28;20027;-89
2022/04/16 02:41:37;;;;;;;11.55;1.60;;;;;;;;;;5076294;28;20073;-89
2022/04/16 02:47:05;;;;;;;9.15;2.10;;;;;;;;;;5095395;28;20480;-89
2022/04/16 02:49:40;;;;;;;10.40;1.98;;;;;;;;;;5090612;28;20016;-88
2022/04/16 02:52:08;;;;;;;12.73;1.83;;;;;;;;;;5091439;28;20023;-88
2022/04/16 02:54:35;;;;;;;11.30;2.35;;;;;;;;;;5074496;28;20042;-89
2022/04/16 02:57:11;;;;;;;12.70;2.33;;;;;;;;;;5074726;28;20038;-89
2022/04/16 02:59:43;;;;;;;13.20;3.13;;;;;;;;;;5072683;28;20115;-88
2022/04/16 03:02:15;;;;;;;13.88;2.80;;;;;;;;;;5090271;28;20043;-88
2022/04/16 03:04:41;;;;;;;9.63;2.50;;;;;;;;;;5072072;28;20031;-88
2022/04/16 03:07:13;;;;;;;14.43;2.30;;;;;;;;;;5075771;28;20172;-88
2022/04/16 03:09:39;;;;;;;13.32;3.22;;;;;;;;;;5092393;28;20085;-88
2022/04/16 03:12:13;;;;;;;11.82;2.55;;;;;;;;;;5075624;28;20479;-88
2022/04/16 03:17:34;;;;;;;21.05;4.07;;;;;;;;;;5091001;28;20074;-88
2022/04/16 03:20:06;;;;;;;21.60;4.63;;;;;;;;;;5056465;28;20071;-87
2022/04/16 03:22:33;;;;;;;22.00;5.93;;;;;;;;;;5093677;28;20035;-89
2022/04/16 03:25:00;;;;;;;23.55;4.88;;;;;;;;;;5072027;28;20032;-87
2022/04/16 03:27:26;;;;;;;15.88;4.03;;;;;;;;;;5081221;28;20081;-87
2022/04/16 03:29:52;;;;;;;23.58;3.10;;;;;;;;;;5070881;28;20478;-87
2022/04/16 03:32:19;;;;;;;22.50;3.47;;;;;;;;;;5071642;28;20059;-89
2022/04/16 03:34:45;;;;;;;17.38;3.70;;;;;;;;;;5081322;28;20024;-89
2022/04/16 03:37:12;;;;;;;25.90;5.25;;;;;;;;;;5057250;28;20437;-88
2022/04/16 03:39:43;;;;;;;20.80;4.22;;;;;;;;;;5071410;28;20021;-88
2022/04/16 03:42:10;;;;;;;14.95;3.67;;;;;;;;;;5066809;28;20025;-89
2022/04/16 03:44:39;;;;;;;12.15;3.25;;;;;;;;;;5063864;28;20051;-89
2022/04/16 03:47:05;;;;;;;19.40;4.10;;;;;;;;;;5075895;28;20060;-88
2022/04/16 03:49:32;;;;;;;17.50;3.05;;;;;;;;;;5075451;28;20016;-88
2022/04/16 03:51:58;;;;;;;16.10;3.53;;;;;;;;;;5072066;28;20019;-88
2022/04/16 04:00:11;;;;;;;10.77;2.50;;;;;;;;;;4732871;28;9999828;-88
2022/04/16 04:02:52;;;;;;;14.23;1.90;;;;;;;;;;5074816;28;20119;-89
2022/04/16 04:05:20;;;;;;;17.17;2.47;;;;;;;;;;5091315;28;20035;-88
2022/04/16 04:07:46;;;;;;;9.27;2.28;;;;;;;;;;5080768;28;20493;-87
2022/04/16 04:10:13;;;;;;;16.80;2.60;;;;;;;;;;5095429;28;20016;-88
2022/04/16 04:13:03;;;;;;;12.50;2.20;;;;;;;;;;5068058;28;20744;-88
2022/04/16 04:15:29;;;;;;;13.57;2.13;;;;;;;;;;5033864;28;20178;-87
2022/04/16 04:17:57;;;;;;;9.18;2.38;;;;;;;;;;5067882;28;20364;-89
2022/04/16 04:20:23;;;;;;;17.45;2.78;;;;;;;;;;5072821;28;20103;-88
2022/04/16 04:22:59;;;;;;;10.23;2.75;;;;;;;;;;4717649;28;10000418;-87
2022/04/16 04:25:27;;;;;;;12.18;2.58;;;;;;;;;;5068410;28;20048;-88
2022/04/16 04:27:57;;;;;;;10.68;2.45;;;;;;;;;;5069989;28;20023;-89
2022/04/16 04:30:24;;;;;;;11.70;2.75;;;;;;;;;;5068703;28;20034;-90
2022/04/16 04:33:06;;;;;;;13.95;3.00;;;;;;;;;;5086411;28;20024;-90
2022/04/16 04:35:32;;;;;;;8.02;2.17;;;;;;;;;;5070049;28;20043;-91
2022/04/16 04:38:04;;;;;;;11.20;1.80;;;;;;;;;;5074257;28;20016;-89
2022/04/16 04:40:31;;;;;;;9.27;1.45;;;;;;;;;;5069344;28;20119;-90
2022/04/16 04:43:02;;;;;;;9.68;1.75;;;;;;;;;;5072546;28;20031;-89
2022/04/16 04:45:34;;;;;;;9.38;1.73;;;;;;;;;;5079881;28;20097;-89
2022/04/16 04:48:07;;;;;;;22.92;2.42;;;;;;;;;;5087658;28;20025;-89
2022/04/16 04:50:36;;;;;;;7.85;1.20;;;;;;;;;;5070893;28;20089;-90
2022/04/16 04:53:13;;;;;;;8.60;1.45;;;;;;;;;;5069749;28;20193;-90
2022/04/16 04:55:39;;;;;;;10.13;1.40;;;;;;;;;;5078734;28;20028;-89
2022/04/16 04:58:12;;;;;;;8.63;1.45;;;;;;;;;;5069181;28;20024;-90
2022/04/16 05:00:39;;;;;;;13.13;2.22;;;;;;;;;;5070762;28;20044;-90
2022/04/16 05:03:06;;;;;;;7.65;1.50;;;;;;;;;;5072459;28;20036;-90
2022/04/16 05:05:39;;;;;;;10.07;1.65;;;;;;;;;;4720126;28;10000192;-89
2022/04/16 05:08:05;;;;;;;9.45;1.83;;;;;;;;;;5070736;28;20031;-90
2022/04/16 05:10:32;;;;;;;20.00;2.03;;;;;;;;;;5066699;28;20051;-90
2022/04/16 05:12:58;;;;;;;8.45;1.70;;;;;;;;;;5087755;28;20021;-90
2022/04/16 05:15:26;;;;;;;10.23;2.47;;;;;;;;;;5073539;28;20045;-89
2022/04/16 05:17:52;;;;;;;11.45;2.50;;;;;;;;;;5089723;28;20016;-90
2022/04/16 05:20:26;;;;;;;13.43;2.40;;;;;;;;;;5072303;28;20031;-89
2022/04/16 05:22:52;;;;;;;13.50;1.73;;;;;;;;;;5086406;28;20490;-87
2022/04/16 05:25:27;;;;;;;10.40;2.40;;;;;;;;;;5073467;28;20027;-87
2022/04/16 05:27:53;;;;;;;11.52;1.92;;;;;;;;;;4723228;28;9999906;-87
2022/04/16 05:30:25;;;;;;;7.03;1.63;;;;;;;;;;5092210;28;20020;-89
2022/04/16 05:33:01;;;;;;;13.25;1.98;;;;;;;;;;5078292;28;20374;-90
2022/04/16 05:35:27;;;;;;;9.23;2.05;;;;;;;;;;5076883;28;20027;-89
2022/04/16 05:37:53;;;;;;;9.85;2.33;;;;;;;;;;5084503;28;20020;-88
2022/04/16 05:40:20;;;;;;;12.00;1.95;;;;;;;;;;5075095;28;20097;-89
2022/04/16 05:42:48;;;;;;;10.98;1.92;;;;;;;;;;5076079;28;20123;-89
2022/04/16 05:45:16;;;;;;;9.82;1.65;;;;;;;;;;4721093;28;9999974;-89
2022/04/16 05:47:43;;;;;;;14.77;2.08;;;;;;;;;;5076621;28;20036;-88
2022/04/16 05:50:11;;;;;;;12.82;2.25;;;;;;;;;;5074367;28;20024;-87
2022/04/16 05:52:39;;;;;;;14.45;1.92;;;;;;;;;;5077013;28;20081;-90
2022/04/16 05:55:07;;;;;;;14.52;2.38;;;;;;;;;;5075270;28;20020;-88
2022/04/16 05:57:33;;;;;;;9.93;1.92;;;;;;;;;;5092452;28;20028;-89
2022/04/16 06:00:04;;;;;;;10.17;2.30;;;;;;;;;;4724449;28;10000234;-88
2022/04/16 06:02:32;;;;;;;15.20;2.42;;;;;;;;;;5056465;28;20294;-88
2022/04/16 06:05:01;;;;;;;10.55;2.17;;;;;;;;;;5071253;28;20056;-87
2022/04/16 06:07:27;;;;;;;14.00;2.60;;;;;;;;;;5048199;28;20025;-88
2022/04/16 06:09:54;;;;;;;10.25;1.60;;;;;;;;;;5055040;28;20517;-89
2022/04/16 06:12:20;;;;;;;16.70;3.83;;;;;;;;;;5052806;28;20499;-88
2022/04/16 06:15:06;;;;;;;9.93;2.55;;;;;;;;;;5054345;28;20116;-87
2022/04/16 06:17:33;;;;;;;11.57;2.13;;;;;;;;;;5055303;28;20056;-87
2022/04/16 06:19:59;;;;;;;20.00;5.07;;;;;;;;;;5054943;28;20032;-88
2022/04/16 06:22:26;;;;;;;15.02;2.83;;;;;;;;;;5055303;28;20162;-87
2022/04/16 06:24:54;;;;;;;17.40;3.45;;;;;;;;;;5060659;28;20025;-87
2022/04/16 06:27:20;;;;;;;15.57;2.65;;;;;;;;;;5052642;28;20591;-88
2022/04/16 06:29:47;;;;;;;40.45;8.60;;;;;;;;;;5052577;28;21660;-87
2022/04/16 06:32:31;;;;;;;15.02;3.25;;;;;;;;;;5053358;28;20067;-87
2022/04/16 06:34:57;;;;;;;19.45;4.03;;;;;;;;;;5047308;28;20579;-87
2022/04/16 06:37:25;;;;;;;20.05;4.03;;;;;;;;;;5053813;28;20063;-88
2022/04/16 06:39:51;;;;;;;13.73;3.22;;;;;;;;;;5056108;28;20059;-86
2022/04/16 06:42:21;;;;;;;14.02;3.67;;;;;;;;;;5054172;28;20036;-87
2022/04/16 06:44:47;;;;;;;20.05;4.18;;;;;;;;;;5066275;28;20033;-87
2022/04/16 06:47:14;;;;;;;25.35;5.43;;;;;;;;;;5051246;28;20032;-87
2022/04/16 06:49:49;;;;;;;27.25;4.75;;;;;;;;;;5051202;28;20020;-89
2022/04/16 06:52:17;;;;;;;20.38;4.75;;;;;;;;;;5062938;28;20140;-88
2022/04/16 06:54:44;;;;;;;27.17;4.80;;;;;;;;;;5052510;28;20067;-88
2022/04/16 06:57:10;;;;;;;19.55;4.03;;;;;;;;;;5068559;28;20020;-86
2022/04/16 06:59:49;;;;;;;14.82;4.25;;;;;;;;;;5048755;28;20041;-88
2022/04/16 07:02:17;;;;;;;21.70;4.85;;;;;;;;;;5070014;28;20587;-87
2022/04/16 07:04:43;;;;;;;51.72;6.50;;;;;;;;;;5074314;28;20024;-87
2022/04/16 07:07:11;;;;;;;20.23;4.45;;;;;;;;;;5075826;28;20525;-88
2022/04/16 07:09:41;;;;;;;23.23;4.50;;;;;;;;;;5074718;28;20417;-89
2022/04/16 07:12:11;;;;;;;13.85;4.28;;;;;;;;;;4733792;28;9999954;-88
2022/04/16 07:14:38;;;;;;;15.57;4.13;;;;;;;;;;5082148;28;20055;-89
2022/04/16 07:17:04;;;;;;;13.30;3.50;;;;;;;;;;5070912;28;20483;-88
2022/04/16 07:19:31;;;;;;;14.70;3.50;;;;;;;;;;5077426;28;20040;-88
2022/04/16 07:21:58;;;;;;;17.88;4.07;;;;;;;;;;5080860;28;20042;-88
2022/04/16 07:24:26;;;;;;;17.90;3.55;;;;;;;;;;5073452;28;21601;-89
2022/04/16 07:26:54;;;;;;;14.82;3.03;;;;;;;;;;5070661;28;20017;-89
2022/04/16 07:29:26;;;;;;;17.92;2.70;;;;;;;;;;5068531;28;20050;-90
2022/04/16 07:31:56;;;;;;;18.60;2.78;;;;;;;;;;5084866;28;20028;-88
2022/04/16 07:34:22;;;;;;;13.73;3.03;;;;;;;;;;5080308;28;20028;-89
2022/04/16 07:36:49;;;;;;;11.63;2.70;;;;;;;;;;5056199;28;20036;-88
2022/04/16 07:39:18;;;;;;;11.75;2.90;;;;;;;;;;4718527;28;10000257;-89
2022/04/16 07:41:44;;;;;;;15.90;2.85;;;;;;;;;;5071950;28;20020;-89
2022/04/16 07:44:12;;;;;;;13.05;2.83;;;;;;;;;;5092819;28;20099;-88
2022/04/16 07:46:38;;;;;;;20.15;2.80;;;;;;;;;;5073749;28;20517;-87
2022/04/16 07:49:05;;;;;;;11.90;2.97;;;;;;;;;;5090585;28;20589;-88
2022/04/16 07:51:31;;;;;;;11.63;2.60;;;;;;;;;;4712216;28;10000263;-86
2022/04/16 07:53:59;;;;;;;15.13;2.28;;;;;;;;;;5079557;28;20143;-89
2022/04/16 07:56:26;;;;;;;11.20;3.40;;;;;;;;;;5072055;28;20046;-89
2022/04/16 07:58:56;;;;;;;9.43;2.45;;;;;;;;;;5072170;28;20028;-89
2022/04/16 08:01:23;;;;;;;9.90;2.67;;;;;;;;;;5071852;28;20768;-90
2022/04/16 08:03:49;;;;;;;10.38;2.58;;;;;;;;;;5068168;28;21886;-86
2022/04/16 08:06:16;;;;;;;11.57;2.40;;;;;;;;;;5076880;28;20020;-88
2022/04/16 08:08:42;;;;;;;12.27;2.83;;;;;;;;;;5067169;28;20020;-88
2022/04/16 08:11:10;;;;;;;11.05;2.65;;;;;;;;;;5062954;28;20036;-88
2022/04/16 08:13:36;;;;;;;9.82;2.15;;;;;;;;;;5063693;28;20027;-87
2022/04/16 08:16:03;;;;;;;12.98;2.78;;;;;;;;;;5070424;28;20039;-87
2022/04/16 08:18:29;;;;;;;13.70;3.58;;;;;;;;;;5067501;28;20834;-88
2022/04/16 08:20:58;;;;;;;14.57;3.30;;;;;;;;;;5068672;28;20368;-88
2022/04/16 08:23:24;;;;;;;13.10;3.00;;;;;;;;;;5068934;28;20391;-89
2022/04/16 08:25:51;;;;;;;14.05;3.33;;;;;;;;;;5086871;28;20024;-88
2022/04/16 08:28:18;;;;;;;11.23;3.42;;;;;;;;;;4732902;28;10000852;-87
2022/04/16 08:30:44;;;;;;;15.90;5.45;;;;;;;;;;5057363;28;20047;-88
2022/04/16 08:33:15;;;;;;;18.65;5.72;;;;;;;;;;5064912;28;20513;-88
2022/04/16 08:35:43;;;;;;;17.17;5.80;;;;;;;;;;5070074;28;20032;-88
2022/04/16 08:38:11;;;;;;;19.27;5.93;;;;;;;;;;4715458;28;10000497;-88
2022/04/16 08:40:37;;;;;;;18.13;6.07;;;;;;;;;;5074983;28;20161;-88
2022/04/16 08:46:07;;;;;;;19.83;6.60;;;;;;;;;;5085817;28;20053;-88
2022/04/16 08:48:34;;;;;;;18.38;6.28;;;;;;;;;;5087278;28;20024;-88
2022/04/16 08:51:00;;;;;;;20.52;6.47;;;;;;;;;;5080921;28;20016;-88
2022/04/16 08:53:28;;;;;;;17.85;6.15;;;;;;;;;;5075034;28;20028;-89
2022/04/16 08:55:54;;;;;;;22.63;6.60;;;;;;;;;;5071534;28;20065;-88
2022/04/16 08:58:23;;;;;;;21.95;6.22;;;;;;;;;;5067617;28;20073;-89
2022/04/16 09:00:49;;;;;;;19.25;6.20;;;;;;;;;;5069915;28;20100;-89
2022/04/16 09:03:15;;;;;;;15.75;6.15;;;;;;;;;;5090352;28;20173;-88
2022/04/16 09:05:55;;;;;;;20.67;6.00;;;;;;;;;;5073965;28;20027;-89
2022/04/16 09:08:28;;;;;;;24.00;6.32;;;;;;;;;;5088887;28;20106;-89
2022/04/16 09:11:06;;;;;;;21.20;5.95;;;;;;;;;;5088229;28;20475;-88
2022/04/16 09:13:36;;;;;;;13.85;5.22;;;;;;;;;;5072667;28;20051;-88
2022/04/16 09:16:22;;;;;;;16.35;6.07;;;;;;;;;;4720323;28;10000007;-88
2022/04/16 09:18:50;;;;;;;21.88;4.97;;;;;;;;;;5069387;28;20055;-89
2022/04/16 09:21:28;;;;;;;18.88;5.40;;;;;;;;;;5076335;28;20110;-88
2022/04/16 09:24:01;;;;;;;14.80;4.70;;;;;;;;;;5072882;28;20107;-89
2022/04/16 09:26:38;;;;;;;17.42;5.18;;;;;;;;;;5076159;28;20368;-87
2022/04/16 09:29:08;;;;;;;14.25;4.25;;;;;;;;;;5076280;28;20548;-87
2022/04/16 09:31:44;;;;;;;18.55;5.97;;;;;;;;;;5073829;28;20027;-87
2022/04/16 09:34:21;;;;;;;19.45;5.05;;;;;;;;;;5072523;28;20086;-89
2022/04/16 09:36:48;;;;;;;10.57;3.15;;;;;;;;;;5076436;28;20399;-87
2022/04/16 09:39:19;;;;;;;14.10;3.20;;;;;;;;;;5076351;28;20052;-88
2022/04/16 09:41:53;;;;;;;15.20;3.10;;;;;;;;;;5077141;28;20067;-87
2022/04/16 09:44:35;;;;;;;15.27;3.58;;;;;;;;;;5073757;28;20036;-87
2022/04/16 09:47:03;;;;;;;11.48;3.28;;;;;;;;;;5075654;28;20044;-88
2022/04/16 09:49:33;;;;;;;12.10;3.20;;;;;;;;;;5080316;28;20034;-89
2022/04/16 09:52:02;;;;;;;10.82;2.38;;;;;;;;;;5075339;28;20491;-88
2022/04/16 09:54:29;;;;;;;8.98;2.42;;;;;;;;;;5072741;28;20112;-89
2022/04/16 09:57:01;;;;;;;11.95;2.75;;;;;;;;;;5069774;28;20074;-88
2022/04/16 09:59:33;;;;;;;11.77;2.88;;;;;;;;;;5097281;28;20128;-88
2022/04/16 10:02:01;;;;;;;13.23;3.40;;;;;;;;;;5085761;28;20044;-88
2022/04/16 10:04:30;;;;;;;11.90;2.83;;;;;;;;;;5094612;28;20024;-88
2022/04/16 10:06:57;;;;;;;16.33;2.55;;;;;;;;;;5074195;28;20030;-87
2022/04/16 10:09:26;;;;;;;8.70;2.58;;;;;;;;;;4724376;28;10000272;-88
2022/04/16 10:14:44;;;;;;;9.80;2.63;;;;;;;;;;5094671;28;20044;-88
2022/04/16 10:17:19;;;;;;;10.80;2.58;;;;;;;;;;5074910;28;20375;-89
2022/04/16 10:19:46;;;;;;;9.02;2.65;;;;;;;;;;5075665;28;20035;-89
2022/04/16 10:22:24;;;;;;;15.05;3.10;;;;;;;;;;5073862;28;20034;-89
2022/04/16 10:24:51;;;;;;;13.05;4.18;;;;;;;;;;5092254;28;20202;-88
2022/04/16 10:27:28;;;;;;;10.95;2.65;;;;;;;;;;5070929;28;20018;-90
2022/04/16 10:30:10;;;;;;;13.80;2.80;;;;;;;;;;5064054;28;20031;-89
2022/04/16 10:32:45;;;;;;;17.02;3.20;;;;;;;;;;5067031;28;20021;-90
2022/04/16 10:35:16;;;;;;;16.85;3.40;;;;;;;;;;5077130;28;20024;-88
2022/04/16 10:37:43;;;;;;;8.43;2.47;;;;;;;;;;5074626;28;20028;-89
2022/04/16 10:40:23;;;;;;;12.10;2.55;;;;;;;;;;5071035;28;20035;-87
2022/04/16 10:42:58;;;;;;;9.60;2.75;;;;;;;;;;5072679;28;20032;-88
2022/04/16 10:45:25;;;;;;;17.48;2.90;;;;;;;;;;5063434;28;20024;-89
2022/04/16 10:47:54;;;;;;;10.15;2.45;;;;;;;;;;5076028;28;20020;-89
2022/04/16 10:50:26;;;;;;;11.77;2.70;;;;;;;;;;5068426;28;20016;-87
2022/04/16 10:53:02;;;;;;;15.63;2.80;;;;;;;;;;5072728;28;20098;-88
2022/04/16 10:55:32;;;;;;;16.00;2.92;;;;;;;;;;5087012;28;20487;-88
2022/04/16 10:58:03;;;;;;;10.18;2.78;;;;;;;;;;5067127;28;20025;-88
2022/04/16 11:00:49;;;;;;;12.50;2.60;;;;;;;;;;5075455;28;20437;-88
2022/04/16 11:03:17;;;;;;;12.85;2.70;;;;;;;;;;5064869;28;20499;-87
2022/04/16 11:05:44;;;;;;;13.05;2.67;;;;;;;;;;5076687;28;20112;-87
2022/04/16 11:08:11;;;;;;;10.15;2.85;;;;;;;;;;5076699;28;20024;-86
2022/04/16 11:10:39;;;;;;;10.45;2.28;;;;;;;;;;4726399;28;10000218;-87
2022/04/16 11:13:05;;;;;;;14.77;3.45;;;;;;;;;;4724644;28;10000330;-85
2022/04/16 11:15:33;;;;;;;16.95;2.90;;;;;;;;;;5075630;28;20509;-86
2022/04/16 11:18:03;;;;;;;16.00;3.70;;;;;;;;;;5067856;28;20025;-86
2022/04/16 11:20:30;;;;;;;14.38;4.22;;;;;;;;;;5078338;28;20115;-87
2022/04/16 11:23:01;;;;;;;10.15;3.63;;;;;;;;;;4720345;28;10000219;-86
2022/04/16 11:34:14;;;;;;;18.35;3.17;;;;;;;;;;5074806;28;20034;-86
2022/04/16 11:34:20;;;;;;;9.82;2.40;;;;;;;;;;4736451;28;9999879;-87
2022/04/16 11:36:50;;;;;;;15.45;3.35;;;;;;;;;;5066784;28;20051;-86
2022/04/16 11:39:19;;;;;;;11.90;2.70;;;;;;;;;;5076098;28;20024;-87
2022/04/16 11:41:56;;;;;;;9.82;2.92;;;;;;;;;;5066044;28;20663;-87
2022/04/16 11:44:52;;;;;;;10.82;2.72;;;;;;;;;;5066485;28;20116;-87
2022/04/16 11:47:22;;;;;;;15.20;3.50;;;;;;;;;;4370230;28;10001182;-87
2022/04/16 11:49:53;;;;;;;16.45;3.47;;;;;;;;;;5068259;28;20101;-87
2022/04/16 11:52:26;;;;;;;7.20;2.95;;;;;;;;;;5084661;28;20444;-86
2022/04/16 11:55:13;;;;;;;12.85;3.15;;;;;;;;;;5059845;28;20032;-87
2022/04/16 11:57:44;;;;;;;14.80;2.58;;;;;;;;;;5069481;28;20123;-86
2022/04/16 12:00:12;;;;;;;10.77;2.92;;;;;;;;;;5068414;28;20031;-87
2022/04/16 12:02:39;;;;;;;12.75;2.53;;;;;;;;;;5068481;28;20079;-88
2022/04/16 12:05:10;;;;;;;13.38;2.30;;;;;;;;;;4718390;28;9999721;-88
2022/04/16 12:07:37;;;;;;;14.45;2.92;;;;;;;;;;4723657;28;9999872;-87
2022/04/16 12:10:05;;;;;;;12.93;2.10;;;;;;;;;;5081105;28;20387;-87
2022/04/16 12:12:42;;;;;;;13.15;2.50;;;;;;;;;;5071245;28;20032;-87
2022/04/16 12:15:08;;;;;;;16.38;2.63;;;;;;;;;;5063563;28;20020;-86
2022/04/16 12:17:43;;;;;;;13.40;2.70;;;;;;;;;;5074099;28;20048;-87
2022/04/16 12:20:11;;;;;;;11.27;2.83;;;;;;;;;;5070991;28;20024;-87
2022/04/16 12:22:54;;;;;;;10.93;2.20;;;;;;;;;;5065692;28;21301;-87
2022/04/16 12:25:23;;;;;;;15.93;2.78;;;;;;;;;;5069774;28;20031;-87
2022/04/16 12:27:51;;;;;;;18.27;3.42;;;;;;;;;;5067327;28;20050;-87
2022/04/16 12:30:24;;;;;;;15.00;2.80;;;;;;;;;;5066672;28;20020;-87
2022/04/16 12:33:04;;;;;;;11.23;2.65;;;;;;;;;;5071932;28;20035;-88
2022/04/16 12:35:33;;;;;;;14.02;3.60;;;;;;;;;;5089204;28;20020;-87
2022/04/16 12:38:00;;;;;;;14.40;3.35;;;;;;;;;;5072176;28;20020;-87
2022/04/16 12:40:35;;;;;;;17.88;3.10;;;;;;;;;;5073504;28;20020;-88
2022/04/16 12:43:04;;;;;;;10.55;2.78;;;;;;;;;;5094950;28;20027;-87
2022/04/16 12:45:30;;;;;;;14.20;3.10;;;;;;;;;;5075960;28;20031;-87
2022/04/16 12:47:59;;;;;;;15.13;3.10;;;;;;;;;;5073334;28;20486;-87
2022/04/16 12:50:26;;;;;;;13.05;3.78;;;;;;;;;;5075424;28;20024;-87
2022/04/16 12:52:55;;;;;;;9.65;3.75;;;;;;;;;;5074402;28;20046;-87
2022/04/16 12:55:25;;;;;;;17.10;4.82;;;;;;;;;;5073582;28;20028;-88
2022/04/16 12:57:58;;;;;;;16.38;4.97;;;;;;;;;;5069551;28;20024;-86
2022/04/16 13:00:27;;;;;;;14.68;4.90;;;;;;;;;;5072729;28;20398;-87
2022/04/16 13:02:55;;;;;;;14.05;5.22;;;;;;;;;;5068155;28;20039;-87
2022/04/16 13:05:23;;;;;;;19.15;6.00;;;;;;;;;;5069680;28;20060;-87
2022/04/16 13:12:41;;;;;;;19.65;6.72;;;;;;;;;;5085657;28;20078;-87
2022/04/16 13:15:08;;;;;;;20.60;8.07;;;;;;;;;;5051989;28;20041;-87
2022/04/16 13:17:35;;;;;;;28.73;11.80;;;;;;;;;;5053504;28;20465;-87
2022/04/16 13:20:02;;;;;;;33.85;15.68;;;;;;;;;;5049498;28;20047;-88
2022/04/16 13:23:04;;;;;;;30.92;14.05;;;;;;;;;;5050137;28;20115;-88
2022/04/16 13:25:37;;;;;;;31.48;14.13;;;;;;;;;;4973875;28;20066;-88
2022/04/16 13:28:04;;;;;;;25.70;11.20;;;;;;;;;;5036691;28;20037;-88
2022/04/16 13:30:32;;;;;;;35.25;15.23;;;;;;;;;;5049243;28;20101;-87
2022/04/16 13:32:59;;;;;;;33.13;16.33;;;;;;;;;;5049325;28;20033;-88
2022/04/16 13:35:39;;;;;;;26.33;13.93;;;;;;;;;;5045211;28;20060;-87
2022/04/16 13:38:07;;;;;;;28.25;13.13;;;;;;;;;;5053848;28;20016;-86
2022/04/16 13:43:35;;;;;;;26.63;8.35;;;;;;;;;;5074199;28;20035;-86
2022/04/16 13:46:02;;;;;;;56.33;29.70;;;;;;;;;;5055812;28;20029;-87
2022/04/16 13:48:35;;;;;;;55.20;28.55;;;;;;;;;;5054284;28;20068;-87
2022/04/16 13:51:14;;;;;;;51.70;22.95;;;;;;;;;;5052320;28;20382;-87
2022/04/16 13:53:40;;;;;;;34.35;15.43;;;;;;;;;;5058484;28;20033;-87
2022/04/16 13:56:16;;;;;;;29.00;11.30;;;;;;;;;;5070464;28;20028;-87
2022/04/16 13:58:43;;;;;;;24.98;7.97;;;;;;;;;;5052618;28;20036;-87
2022/04/16 14:01:13;;;;;;;20.08;7.25;;;;;;;;;;5069675;28;20025;-87
2022/04/16 14:03:40;;;;;;;15.18;5.53;;;;;;;;;;5050112;28;20040;-87
2022/04/16 14:06:08;;;;;;;14.13;6.07;;;;;;;;;;5054656;28;20027;-85
2022/04/16 14:08:35;;;;;;;17.73;5.18;;;;;;;;;;5061871;28;20024;-86
2022/04/16 14:11:01;;;;;;;15.10;4.90;;;;;;;;;;5052431;28;20048;-86
2022/04/16 14:13:32;;;;;;;16.38;4.15;;;;;;;;;;5056949;28;20045;-86
2022/04/16 14:16:02;;;;;;;21.08;4.88;;;;;;;;;;5056498;28;20122;-86
2022/04/16 14:18:30;;;;;;;17.75;5.13;;;;;;;;;;5047080;28;20020;-87
2022/04/16 14:20:56;;;;;;;16.48;4.60;;;;;;;;;;5052891;28;20025;-87
2022/04/16 14:23:32;;;;;;;19.45;4.85;;;;;;;;;;5062243;28;20032;-87
2022/04/16 14:25:59;;;;;;;17.98;5.15;;;;;;;;;;5064545;28;20414;-87
2022/04/16 14:28:25;;;;;;;22.75;5.38;;;;;;;;;;5060907;28;20020;-86
2022/04/16 14:30:52;;;;;;;20.90;6.18;;;;;;;;;;5056495;28;20024;-87
2022/04/16 14:33:18;;;;;;;22.48;5.93;;;;;;;;;;5057203;28;20021;-87
2022/04/16 14:35:49;;;;;;;26.25;7.63;;;;;;;;;;5056223;28;20028;-86
2022/04/16 14:38:16;;;;;;;20.33;7.13;;;;;;;;;;5061530;28;20376;-88
2022/04/16 14:40:47;;;;;;;27.10;8.38;;;;;;;;;;5072660;28;20025;-87
2022/04/16 14:43:14;;;;;;;23.15;7.90;;;;;;;;;;5050434;28;20052;-87
2022/04/16 14:45:44;;;;;;;26.20;7.75;;;;;;;;;;5056981;28;20052;-87
2022/04/16 14:48:11;;;;;;;25.30;7.93;;;;;;;;;;5053337;28;20067;-87
2022/04/16 14:50:37;;;;;;;25.90;7.60;;;;;;;;;;5050142;28;20044;-87
2022/04/16 14:53:07;;;;;;;25.02;8.82;;;;;;;;;;5057769;28;20051;-87
2022/04/16 14:55:36;;;;;;;26.40;9.55;;;;;;;;;;5074253;28;20032;-87
2022/04/16 14:58:05;;;;;;;29.70;9.80;;;;;;;;;;5055973;28;20035;-86
2022/04/16 15:00:36;;;;;;;36.53;10.30;;;;;;;;;;5056306;28;20027;-87
2022/04/16 15:03:03;;;;;;;35.75;12.45;;;;;;;;;;5057066;28;20102;-87
2022/04/16 15:05:30;;;;;;;33.03;11.95;;;;;;;;;;5054984;28;20028;-86
2022/04/16 15:07:56;;;;;;;30.02;10.18;;;;;;;;;;5055084;28;20025;-87
2022/04/16 15:10:26;;;;;;;23.25;9.38;;;;;;;;;;5054489;28;20032;-86
2022/04/16 15:12:55;;;;;;;22.88;8.70;;;;;;;;;;5063173;28;20614;-87
2022/04/16 15:15:21;;;;;;;28.35;8.23;;;;;;;;;;5055755;28;20433;-87
2022/04/16 15:17:50;;;;;;;33.80;9.30;;;;;;;;;;5056560;28;20039;-86